createdAt,value
2018-05-09T00:01:08.593Z,5.97
2018-05-09T00:03:36.843Z,6.00
2018-05-09T00:06:04.353Z,6.00
2018-05-09T00:08:31.840Z,5.47
2018-05-09T00:10:59.376Z,6.00
2018-05-09T00:13:26.872Z,5.50
2018-05-09T00:15:54.360Z,6.13
2018-05-09T00:18:22.640Z,6.70
2018-05-09T00:20:50.900Z,5.90
2018-05-09T00:23:18.422Z,6.00
2018-05-09T00:25:45.913Z,5.47
2018-05-09T00:28:14.192Z,6.23
2018-05-09T00:30:42.453Z,6.83
2018-05-09T00:33:09.964Z,6.00
2018-05-09T00:35:37.456Z,6.43
2018-05-09T00:38:04.952Z,6.83
2018-05-09T00:40:33.228Z,6.20
2018-05-09T00:43:01.489Z,5.53
2018-05-09T00:45:29.185Z,6.27
2018-05-09T00:47:56.680Z,6.30
2018-05-09T00:50:24.188Z,6.60
2018-05-09T00:52:52.444Z,5.90
2018-05-09T00:55:19.962Z,6.33
2018-05-09T00:57:47.452Z,6.77
2018-05-09T01:00:16.448Z,6.23
2018-05-09T01:02:43.965Z,6.40
2018-05-09T01:05:11.461Z,6.30
2018-05-09T01:07:39.739Z,6.30
2018-05-09T01:10:07.229Z,6.10
2018-05-09T01:12:35.508Z,6.43
2018-05-09T01:15:03.768Z,7.00
2018-05-09T01:17:31.280Z,6.40
2018-05-09T01:19:58.771Z,6.20
2018-05-09T01:22:27.028Z,7.30
2018-05-09T01:24:54.545Z,6.23
2018-05-09T01:27:22.032Z,6.33
2018-05-09T01:29:49.548Z,6.77
2018-05-09T01:32:17.805Z,6.37
2018-05-09T01:34:45.320Z,6.07
2018-05-09T01:37:12.813Z,6.60
2018-05-09T01:39:41.836Z,6.50
2018-05-09T01:42:10.098Z,6.60
2018-05-09T01:44:38.385Z,7.47
2018-05-09T01:47:06.640Z,6.60
2018-05-09T01:49:34.134Z,5.93
2018-05-09T01:52:01.648Z,6.27
2018-05-09T01:54:29.139Z,6.87
2018-05-09T01:56:57.417Z,6.60
2018-05-09T01:59:25.708Z,6.60
2018-05-09T02:01:53.969Z,7.27
2018-05-09T02:04:22.224Z,6.60
2018-05-09T02:06:49.736Z,6.87
2018-05-09T02:09:17.228Z,6.03
2018-05-09T02:11:44.748Z,6.53
2018-05-09T02:14:12.236Z,6.17
2018-05-09T02:16:39.728Z,7.57
2018-05-09T02:19:08.005Z,6.83
2018-05-09T02:21:36.264Z,7.73
2018-05-09T02:24:03.805Z,7.03
2018-05-09T02:26:31.283Z,7.60
2018-05-09T02:28:58.796Z,7.10
2018-05-09T02:31:26.285Z,7.20
2018-05-09T02:33:53.805Z,6.77
2018-05-09T02:36:21.305Z,7.03
2018-05-09T02:38:48.805Z,6.83
2018-05-09T02:41:17.089Z,7.00
2018-05-09T02:43:44.676Z,7.40
2018-05-09T02:46:12.120Z,7.50
2018-05-09T02:48:39.617Z,7.30
2018-05-09T02:51:07.137Z,8.00
2018-05-09T02:53:34.645Z,8.00
2018-05-09T02:56:02.161Z,7.93
2018-05-09T02:58:29.653Z,7.57
2018-05-09T03:00:58.680Z,7.73
2018-05-09T03:03:26.945Z,7.73
2018-05-09T03:05:55.233Z,7.20
2018-05-09T03:08:23.504Z,7.87
2018-05-09T03:10:51.761Z,6.90
2018-05-09T03:13:19.293Z,6.90
2018-05-09T03:15:46.797Z,7.73
2018-05-09T03:18:15.085Z,7.33
2018-05-09T03:20:42.580Z,7.10
2018-05-09T03:23:10.103Z,7.20
2018-05-09T03:25:37.596Z,8.00
2018-05-09T03:28:05.117Z,7.93
2018-05-09T03:30:33.381Z,7.10
2018-05-09T03:33:01.669Z,8.60
2018-05-09T03:35:29.932Z,7.73
2018-05-09T03:37:58.188Z,7.50
2018-05-09T03:40:25.709Z,7.37
2018-05-09T03:42:53.204Z,7.87
2018-05-09T03:45:21.493Z,8.40
2018-05-09T03:47:48.994Z,7.70
2018-05-09T03:50:16.517Z,8.20
2018-05-09T03:52:44.025Z,7.60
2018-05-09T03:55:11.545Z,7.53
2018-05-09T03:57:39.804Z,7.63
2018-05-09T04:00:07.324Z,7.60
2018-05-09T04:02:46.653Z,7.50
2018-05-09T04:05:26.237Z,7.27
2018-05-09T04:08:06.953Z,7.73
2018-05-09T04:10:35.329Z,7.80
2018-05-09T04:13:02.830Z,7.53
2018-05-09T04:15:30.372Z,8.27
2018-05-09T04:17:57.869Z,7.53
2018-05-09T04:20:26.129Z,8.53
2018-05-09T04:22:54.413Z,8.43
2018-05-09T04:25:22.677Z,8.60
2018-05-09T04:27:50.194Z,8.30
2018-05-09T04:30:17.689Z,9.20
2018-05-09T04:32:45.209Z,8.57
2018-05-09T04:35:12.708Z,9.10
2018-05-09T04:37:40.228Z,9.60
2018-05-09T04:40:07.724Z,8.80
2018-05-09T04:42:35.245Z,9.40
2018-05-09T04:45:02.750Z,9.50
2018-05-09T04:47:31.750Z,9.43
2018-05-09T04:49:59.273Z,10.80
2018-05-09T04:52:26.772Z,9.87
2018-05-09T04:54:54.289Z,9.93
2018-05-09T04:57:21.789Z,10.20
2018-05-09T04:59:50.077Z,9.87
2018-05-09T05:02:18.341Z,9.73
2018-05-09T05:04:45.860Z,9.37
2018-05-09T05:07:13.357Z,8.73
2018-05-09T05:09:40.885Z,9.33
2018-05-09T05:12:08.385Z,9.40
2018-05-09T05:14:36.644Z,9.77
2018-05-09T05:17:04.160Z,8.73
2018-05-09T05:19:31.660Z,9.07
2018-05-09T05:21:59.949Z,8.90
2018-05-09T05:24:28.213Z,9.37
2018-05-09T05:26:57.309Z,9.00
2018-05-09T05:29:24.756Z,8.90
2018-05-09T05:31:52.272Z,9.57
2018-05-09T05:34:19.769Z,9.00
2018-05-09T05:36:47.289Z,9.60
2018-05-09T05:39:14.792Z,8.77
2018-05-09T05:41:43.793Z,9.43
2018-05-09T05:44:12.825Z,9.80
2018-05-09T05:46:40.325Z,9.30
2018-05-09T05:49:07.846Z,9.80
2018-05-09T05:51:35.345Z,9.97
2018-05-09T05:54:02.871Z,10.03
2018-05-09T05:56:30.369Z,9.20
2018-05-09T05:58:57.888Z,9.43
2018-05-09T06:01:25.388Z,10.17
2018-05-09T06:03:53.672Z,9.50
2018-05-09T06:06:22.716Z,9.20
2018-05-09T06:08:50.952Z,8.90
2018-05-09T06:11:18.476Z,8.83
2018-05-09T06:13:45.976Z,10.03
2018-05-09T06:16:14.260Z,9.70
2018-05-09T06:18:42.525Z,9.27
2018-05-09T06:21:10.044Z,7.93
2018-05-09T06:23:37.541Z,8.93
2018-05-09T06:26:05.065Z,8.40
2018-05-09T06:28:32.564Z,9.10
2018-05-09T06:31:00.872Z,9.23
2018-05-09T06:33:28.369Z,8.97
2018-05-09T06:35:56.060Z,10.10
2018-05-09T06:38:24.316Z,8.50
2018-05-09T06:40:51.808Z,9.47
2018-05-09T06:43:20.095Z,9.33
2018-05-09T06:45:47.589Z,9.10
2018-05-09T06:48:15.108Z,8.63
2018-05-09T06:50:42.605Z,8.17
2018-05-09T06:53:10.127Z,9.03
2018-05-09T06:55:37.628Z,9.83
2018-05-09T06:58:05.145Z,9.93
2018-05-09T07:00:32.645Z,9.50
2018-05-09T07:03:00.170Z,10.67
2018-05-09T07:05:27.669Z,8.70
2018-05-09T07:07:55.189Z,9.53
2018-05-09T07:10:22.698Z,8.80
2018-05-09T07:12:50.960Z,8.50
2018-05-09T07:15:18.481Z,8.67
2018-05-09T07:17:45.984Z,8.80
2018-05-09T07:20:13.509Z,8.10
2018-05-09T07:22:41.007Z,8.43
2018-05-09T07:25:08.577Z,8.57
2018-05-09T07:27:36.069Z,8.63
2018-05-09T07:30:03.593Z,8.20
2018-05-09T07:32:31.088Z,8.10
2018-05-09T07:34:58.594Z,8.37
2018-05-09T07:37:26.117Z,7.93
2018-05-09T07:39:53.612Z,8.13
2018-05-09T07:42:21.130Z,8.30
2018-05-09T07:44:48.626Z,6.33
2018-05-09T07:47:16.140Z,6.97
2018-05-09T07:49:43.632Z,7.40
2018-05-09T07:52:11.149Z,7.43
2018-05-09T07:54:38.645Z,6.97
2018-05-09T07:57:06.164Z,6.90
2018-05-09T07:59:34.425Z,6.47
2018-05-09T08:02:02.686Z,7.40
2018-05-09T08:04:30.213Z,8.83
2018-05-09T08:06:57.713Z,7.10
2018-05-09T08:09:25.234Z,7.80
2018-05-09T08:11:52.735Z,7.80
2018-05-09T08:14:21.016Z,7.73
2018-05-09T08:16:49.273Z,6.70
2018-05-09T08:19:16.797Z,6.90
2018-05-09T08:21:44.293Z,6.60
2018-05-09T08:24:11.794Z,7.87
2018-05-09T08:26:39.317Z,7.87
2018-05-09T08:29:06.817Z,8.20
2018-05-09T08:31:34.330Z,6.90
2018-05-09T08:34:01.830Z,6.87
2018-05-09T08:36:29.353Z,7.30
2018-05-09T08:38:57.632Z,7.23
2018-05-09T08:41:25.912Z,6.87
2018-05-09T08:43:54.219Z,7.87
2018-05-09T08:46:22.452Z,6.83
2018-05-09T08:48:49.975Z,6.90
2018-05-09T08:51:17.476Z,6.87
2018-05-09T08:53:45.764Z,6.93
2018-05-09T08:56:14.026Z,6.30
2018-05-09T08:58:41.553Z,6.73
2018-05-09T09:01:09.053Z,6.43
2018-05-09T09:03:37.342Z,6.57
2018-05-09T09:06:05.597Z,7.37
2018-05-09T09:08:33.866Z,7.43
2018-05-09T09:11:01.380Z,6.50
2018-05-09T09:13:28.877Z,6.13
2018-05-09T09:15:56.401Z,6.70
2018-05-09T09:18:23.901Z,7.10
2018-05-09T09:20:51.428Z,7.40
2018-05-09T09:23:18.925Z,6.30
2018-05-09T09:25:46.440Z,6.80
2018-05-09T09:28:13.949Z,6.60
2018-05-09T09:30:42.237Z,6.93
2018-05-09T09:33:10.496Z,7.10
2018-05-09T09:35:37.993Z,7.23
2018-05-09T09:38:05.509Z,7.43
2018-05-09T09:40:33.010Z,7.20
2018-05-09T09:43:00.525Z,7.80
2018-05-09T09:45:28.025Z,7.40
2018-05-09T09:47:55.544Z,7.53
2018-05-09T09:50:23.041Z,6.60
2018-05-09T09:52:50.556Z,8.50
2018-05-09T09:55:18.064Z,7.63
2018-05-09T09:57:45.580Z,6.70
2018-05-09T10:00:13.081Z,7.27
2018-05-09T10:02:40.577Z,7.23
2018-05-09T10:05:08.094Z,7.40
2018-05-09T10:07:35.593Z,6.93
2018-05-09T10:10:03.121Z,7.70
2018-05-09T10:12:30.621Z,6.70
2018-05-09T10:14:58.137Z,6.50
2018-05-09T10:17:25.636Z,6.50
2018-05-09T10:19:53.157Z,6.63
2018-05-09T10:22:20.664Z,6.70
2018-05-09T10:24:48.937Z,6.63
2018-05-09T10:27:16.461Z,6.70
2018-05-09T10:29:43.960Z,5.90
2018-05-09T10:32:11.478Z,6.13
2018-05-09T10:34:38.977Z,6.07
2018-05-09T10:37:06.496Z,5.90
2018-05-09T10:39:33.989Z,6.07
2018-05-09T10:42:01.516Z,6.33
2018-05-09T10:44:29.012Z,6.43
2018-05-09T10:46:57.277Z,6.30
2018-05-09T10:49:24.797Z,5.70
2018-05-09T10:51:52.304Z,4.90
2018-05-09T10:54:19.829Z,5.50
2018-05-09T10:56:47.324Z,5.33
2018-05-09T10:59:15.614Z,4.70
2018-05-09T11:01:43.873Z,4.67
2018-05-09T11:04:11.389Z,5.27
2018-05-09T11:06:38.880Z,4.27
2018-05-09T11:09:06.393Z,4.33
2018-05-09T11:11:33.893Z,4.20
2018-05-09T11:14:01.384Z,4.40
2018-05-09T11:16:29.667Z,4.10
2018-05-09T11:18:57.157Z,3.83
2018-05-09T11:21:24.677Z,3.40
2018-05-09T11:23:52.944Z,4.00
2018-05-09T11:26:21.233Z,4.10
2018-05-09T11:28:48.728Z,3.90
2018-05-09T11:31:16.267Z,4.10
2018-05-09T11:33:43.766Z,4.53
2018-05-09T11:36:11.265Z,3.63
2018-05-09T11:38:39.553Z,4.20
2018-05-09T11:41:07.051Z,4.30
2018-05-09T11:43:34.569Z,3.77
2018-05-09T11:46:02.059Z,3.20
2018-05-09T11:48:29.577Z,3.37
2018-05-09T11:50:57.832Z,3.40
2018-05-09T11:53:26.833Z,3.17
2018-05-09T11:55:55.113Z,3.20
2018-05-09T11:58:23.369Z,2.63
2018-05-09T12:00:51.669Z,3.10
2018-05-09T12:03:19.933Z,3.00
2018-05-09T12:05:48.222Z,2.70
2018-05-09T12:08:16.492Z,2.40
2018-05-09T12:10:44.876Z,2.50
2018-05-09T12:13:13.057Z,2.65
2018-05-09T12:15:41.320Z,2.65
2018-05-09T12:18:09.605Z,2.37
2018-05-09T12:20:37.873Z,2.47
2018-05-09T12:23:06.160Z,2.50
2018-05-09T12:25:34.421Z,2.40
2018-05-09T12:28:01.917Z,2.40
2018-05-09T12:30:29.433Z,2.50
2018-05-09T12:32:56.925Z,2.05
2018-05-09T12:35:24.440Z,2.05
2018-05-09T12:37:51.932Z,2.00
2018-05-09T12:40:20.192Z,1.98
2018-05-09T12:42:47.705Z,1.90
2018-05-09T12:45:15.197Z,2.00
2018-05-09T12:47:42.713Z,2.10
2018-05-09T12:50:10.213Z,1.87
2018-05-09T12:52:37.737Z,1.98
2018-05-09T12:55:05.224Z,2.00
2018-05-09T12:57:32.741Z,2.10
2018-05-09T13:00:00.237Z,2.15
2018-05-09T13:02:27.741Z,2.20
2018-05-09T13:04:55.261Z,2.08
2018-05-09T13:07:22.854Z,1.92
2018-05-09T13:09:50.305Z,2.12
2018-05-09T13:12:18.570Z,2.17
2018-05-09T13:14:46.089Z,2.00
2018-05-09T13:17:13.588Z,2.75
2018-05-09T13:19:41.961Z,2.33
2018-05-09T13:22:09.386Z,2.47
2018-05-09T13:24:36.877Z,1.95
2018-05-09T13:27:04.393Z,2.37
2018-05-09T13:29:31.881Z,2.40
2018-05-09T13:31:59.398Z,2.53
2018-05-09T13:34:26.893Z,2.67
2018-05-09T13:36:54.413Z,2.33
2018-05-09T13:39:21.909Z,2.30
2018-05-09T13:41:49.400Z,2.87
2018-05-09T13:44:17.680Z,2.47
2018-05-09T13:46:45.937Z,2.30
2018-05-09T13:49:14.228Z,2.10
2018-05-09T13:51:42.485Z,2.37
2018-05-09T13:54:10.008Z,3.00
2018-05-09T13:56:37.506Z,2.33
2018-05-09T13:59:05.029Z,2.70
2018-05-09T14:01:32.520Z,2.60
2018-05-09T14:04:00.017Z,2.50
2018-05-09T14:06:27.537Z,2.70
2018-05-09T14:08:55.038Z,2.83
2018-05-09T14:11:22.553Z,2.80
2018-05-09T14:13:50.049Z,3.00
2018-05-09T14:16:17.569Z,2.90
2018-05-09T14:18:45.061Z,3.00
2018-05-09T14:21:12.577Z,3.40
2018-05-09T14:23:40.089Z,2.97
2018-05-09T14:26:07.584Z,3.30
2018-05-09T14:28:35.097Z,3.50
2018-05-09T14:31:02.593Z,3.43
2018-05-09T14:33:30.118Z,3.30
2018-05-09T14:35:57.613Z,3.57
2018-05-09T14:38:25.133Z,3.20
2018-05-09T14:40:52.705Z,3.20
2018-05-09T14:43:20.220Z,3.60
2018-05-09T14:45:47.721Z,3.20
2018-05-09T14:48:15.246Z,3.50
2018-05-09T14:50:43.512Z,3.30
2018-05-09T14:53:11.009Z,3.50
2018-05-09T14:55:38.540Z,3.20
2018-05-09T14:58:06.805Z,3.50
2018-05-09T15:00:34.324Z,3.03
2018-05-09T15:03:01.812Z,3.73
2018-05-09T15:05:29.324Z,3.40
2018-05-09T15:07:56.821Z,3.43
2018-05-09T15:10:24.338Z,3.70
2018-05-09T15:12:51.829Z,3.30
2018-05-09T15:15:19.329Z,3.70
2018-05-09T15:17:47.628Z,3.70
2018-05-09T15:20:15.125Z,3.50
2018-05-09T15:22:42.641Z,3.27
2018-05-09T15:25:10.137Z,3.80
2018-05-09T15:27:37.656Z,3.60
2018-05-09T15:30:05.148Z,3.70
2018-05-09T15:32:32.660Z,3.53
2018-05-09T15:35:00.924Z,3.60
2018-05-09T15:37:28.422Z,4.03
2018-05-09T15:39:55.941Z,3.90
2018-05-09T15:42:24.206Z,3.50
2018-05-09T15:44:51.885Z,3.57
2018-05-09T15:47:19.237Z,4.30
2018-05-09T15:49:47.521Z,3.60
2018-05-09T15:52:15.781Z,4.10
2018-05-09T15:54:43.300Z,3.50
2018-05-09T15:57:10.813Z,3.80
2018-05-09T15:59:39.100Z,3.60
2018-05-09T16:02:07.357Z,3.90
2018-05-09T16:04:35.626Z,3.60
2018-05-09T16:07:03.908Z,3.90
2018-05-09T16:09:31.405Z,3.83
2018-05-09T16:11:58.921Z,3.30
2018-05-09T16:14:26.414Z,3.80
2018-05-09T16:16:53.939Z,3.63
2018-05-09T16:19:21.429Z,3.30
2018-05-09T16:21:48.925Z,4.00
2018-05-09T16:24:16.445Z,3.70
2018-05-09T16:26:43.940Z,3.50
2018-05-09T16:29:11.460Z,3.67
2018-05-09T16:31:38.948Z,3.67
2018-05-09T16:34:06.465Z,3.73
2018-05-09T16:36:34.725Z,3.67
2018-05-09T16:39:02.229Z,3.50
2018-05-09T16:41:29.761Z,3.80
2018-05-09T16:43:58.016Z,3.67
2018-05-09T16:46:25.537Z,4.10
2018-05-09T16:48:53.028Z,3.37
2018-05-09T16:51:20.545Z,3.70
2018-05-09T16:53:48.044Z,3.80
2018-05-09T16:56:15.536Z,3.70
2018-05-09T16:58:43.820Z,3.80
2018-05-09T17:01:11.311Z,3.97
2018-05-09T17:03:38.837Z,3.83
2018-05-09T17:06:06.354Z,4.10
2018-05-09T17:08:33.878Z,4.10
2018-05-09T17:11:01.373Z,3.93
2018-05-09T17:13:28.864Z,4.00
2018-05-09T17:15:56.381Z,4.27
2018-05-09T17:18:23.873Z,3.80
2018-05-09T17:20:52.161Z,4.20
2018-05-09T17:23:19.661Z,8.80
2018-05-09T17:25:47.181Z,4.47
2018-05-09T17:28:14.682Z,4.30
2018-05-09T17:30:42.260Z,3.93
2018-05-09T17:33:09.726Z,4.20
2018-05-09T17:35:37.229Z,4.20
2018-05-09T17:38:04.750Z,4.20
2018-05-09T17:40:33.008Z,5.13
2018-05-09T17:43:00.526Z,5.07
2018-05-09T17:45:28.025Z,5.57
2018-05-09T17:47:55.516Z,5.27
2018-05-09T17:50:23.796Z,4.27
2018-05-09T17:52:52.056Z,5.50
2018-05-09T17:55:20.336Z,5.00
2018-05-09T17:57:48.605Z,4.53
2018-05-09T18:00:16.889Z,6.00
2018-05-09T18:02:45.152Z,4.93
2018-05-09T18:05:12.672Z,4.37
2018-05-09T18:07:40.192Z,3.97
2018-05-09T18:10:08.458Z,4.60
2018-05-09T18:12:36.843Z,4.33
2018-05-09T18:15:04.257Z,4.40
2018-05-09T18:17:31.769Z,4.73
2018-05-09T18:20:00.029Z,5.30
2018-05-09T18:22:28.313Z,6.50
2018-05-09T18:24:56.584Z,6.13
2018-05-09T18:27:24.864Z,5.47
2018-05-09T18:29:53.149Z,5.00
2018-05-09T18:32:21.409Z,4.90
2018-05-09T18:34:49.688Z,6.20
2018-05-09T18:37:17.963Z,4.87
2018-05-09T18:39:46.344Z,6.00
2018-05-09T18:42:13.773Z,6.00
2018-05-09T18:44:41.319Z,5.80
2018-05-09T18:47:08.800Z,6.00
2018-05-09T18:49:36.294Z,5.60
2018-05-09T18:52:03.813Z,6.10
2018-05-09T18:54:31.309Z,6.30
2018-05-09T18:56:58.834Z,5.90
2018-05-09T18:59:26.328Z,6.53
2018-05-09T19:01:53.844Z,6.60
2018-05-09T19:04:21.341Z,7.30
2018-05-09T19:06:49.605Z,7.30
2018-05-09T19:09:17.889Z,7.37
2018-05-09T19:11:46.160Z,6.60
2018-05-09T19:14:14.441Z,6.47
2018-05-09T19:16:42.705Z,6.77
2018-05-09T19:19:10.989Z,6.20
2018-05-09T19:21:39.257Z,6.23
2018-05-09T19:24:07.542Z,6.43
2018-05-09T19:26:35.800Z,6.70
2018-05-09T19:29:04.057Z,6.10
2018-05-09T19:31:31.578Z,6.63
2018-05-09T19:33:59.069Z,5.63
2018-05-09T19:36:26.590Z,5.60
2018-05-09T19:38:54.089Z,5.67
2018-05-09T19:41:21.609Z,5.97
2018-05-09T19:43:49.101Z,6.10
2018-05-09T19:46:16.616Z,5.77
2018-05-09T19:48:44.119Z,6.20
2018-05-09T19:51:11.640Z,6.37
2018-05-09T19:53:39.133Z,6.80
2018-05-09T19:56:06.648Z,6.90
2018-05-09T19:58:34.908Z,7.53
2018-05-09T20:01:03.164Z,7.90
2018-05-09T20:03:31.444Z,8.00
2018-05-09T20:05:58.936Z,6.53
2018-05-09T20:08:26.549Z,7.10
2018-05-09T20:10:53.971Z,6.60
2018-05-09T20:15:54.229Z,6.00
2018-05-09T20:18:21.753Z,6.20
2018-05-09T20:20:50.009Z,6.00
2018-05-09T20:23:18.297Z,6.67
2018-05-09T20:25:46.556Z,7.10
2018-05-09T20:28:14.061Z,7.50
2018-05-09T20:30:47.156Z,6.40
2018-05-09T20:33:14.644Z,6.87
2018-05-09T20:35:42.157Z,7.40
2018-05-09T20:38:09.649Z,7.60
2018-05-09T20:40:37.165Z,7.77
2018-05-09T20:43:04.668Z,8.00
2018-05-09T20:45:32.189Z,7.80
2018-05-09T20:47:59.689Z,8.40
2018-05-09T20:50:27.206Z,8.07
2018-05-09T20:52:54.729Z,7.60
2018-05-09T20:55:28.232Z,7.90
2018-05-09T20:57:55.753Z,7.93
2018-05-09T21:00:23.249Z,8.00
2018-05-09T21:02:50.773Z,9.30
2018-05-09T21:05:18.274Z,9.67
2018-05-09T21:07:56.489Z,9.93
2018-05-09T21:10:24.752Z,9.00
2018-05-09T21:12:53.026Z,8.77
2018-05-09T21:15:20.553Z,9.70
2018-05-09T21:17:48.045Z,8.73
2018-05-09T21:20:16.374Z,9.40
2018-05-09T21:22:43.857Z,8.63
2018-05-09T21:25:11.375Z,9.17
2018-05-09T21:27:38.894Z,9.37
2018-05-09T21:30:06.397Z,8.73
2018-05-09T21:32:33.912Z,8.53
2018-05-09T21:35:01.410Z,8.23
2018-05-09T21:37:28.949Z,8.43
2018-05-09T21:39:57.210Z,9.80
2018-05-09T21:42:24.701Z,8.13
2018-05-09T21:44:52.229Z,9.50
2018-05-09T21:47:20.304Z,9.30
2018-05-09T21:49:48.587Z,9.50
2018-05-09T21:52:16.853Z,9.80
2018-05-09T21:54:45.143Z,10.73
2018-05-09T21:57:13.409Z,10.03
2018-05-09T21:59:41.706Z,9.80
2018-05-09T22:02:09.304Z,9.50
2018-05-09T22:04:36.800Z,10.47
2018-05-09T22:07:04.341Z,9.53
2018-05-09T22:09:31.841Z,9.60
2018-05-09T22:11:59.374Z,10.03
2018-05-09T22:14:26.873Z,10.20
2018-05-09T22:16:54.396Z,9.70
2018-05-09T22:19:21.897Z,10.30
2018-05-09T22:21:49.393Z,9.93
2018-05-09T22:24:16.917Z,10.40
2018-05-09T22:26:44.416Z,10.20
2018-05-09T22:29:13.499Z,9.70
2018-05-09T22:31:41.012Z,11.30
2018-05-09T22:34:08.533Z,10.30
2018-05-09T22:36:36.035Z,10.00
2018-05-09T22:39:03.570Z,10.27
2018-05-09T22:41:31.844Z,10.13
2018-05-09T22:44:00.113Z,10.87
2018-05-09T22:46:27.639Z,10.50
2018-05-09T22:48:55.136Z,10.20
2018-05-09T22:51:22.664Z,11.10
2018-05-09T22:53:50.169Z,10.20
2018-05-09T22:56:18.469Z,9.73
2018-05-09T22:58:45.969Z,10.80
2018-05-09T23:01:13.489Z,9.93
2018-05-09T23:03:41.008Z,10.37
2018-05-09T23:06:09.272Z,11.00
2018-05-09T23:08:36.793Z,10.70
2018-05-09T23:11:04.293Z,10.20
2018-05-09T23:13:31.826Z,11.07
2018-05-09T23:15:59.333Z,11.20
2018-05-09T23:18:27.620Z,11.70
2018-05-09T23:20:55.124Z,12.27
2018-05-09T23:23:22.629Z,10.50
2018-05-09T23:25:50.918Z,11.07
2018-05-09T23:28:18.446Z,11.13
2018-05-09T23:30:46.753Z,10.73
2018-05-09T23:33:14.261Z,10.93
2018-05-09T23:35:41.780Z,10.77
2018-05-09T23:38:09.281Z,10.67
2018-05-09T23:40:36.823Z,10.20
2018-05-09T23:43:04.328Z,11.57
2018-05-09T23:45:32.593Z,10.30
2018-05-09T23:48:00.877Z,9.90
2018-05-09T23:50:29.157Z,9.70
2018-05-09T23:52:57.420Z,10.40
2018-05-09T23:55:24.945Z,10.60
2018-05-09T23:57:52.449Z,9.50
